Porquerolles, France

11:59 PM CEST on September 24, 2016 (GMT +0200)
Avenue du Clair de Lune | | Change Station

Elev 55 ft 43.04 °N, 6.13 °E | Updated 4 minutes ago

Clear
Clear
71.1 °F
Feels Like 74 °F
N
0.0
Wind Variable Wind from North
Gusts 1.2 mph

Today
High -- | Low -- °F
--% Chance of Precip.
Yesterday
High -- | Low -- °F
Precip. -- in
Pressure 30.18 in
Visibility -9999.0 miles
Clouds
Heat Index 74 °F
Dew Point 62 °F
Humidity 72%
Rainfall 0.00 in
Snow Depth Not available.
7:24 AM 7:28 PM
Waning Crescent, 34% visible
METAR LFTH 242130Z AUTO 33005KT CAVOK 18/15 Q1022 NOSIG
Pressure 30.18 in
Visibility -9999.0 miles
Clouds
Heat Index 74 °F
Dew Point 62 °F
Humidity 72%
Rainfall 0.00 in
Snow Depth Not available.
7:24 AM 7:28 PM
Waning Crescent, 34% visible
METAR LFTH 242130Z AUTO 33005KT CAVOK 18/15 Q1022 NOSIG

10-Day Weather Forecast

×

Almanac

Astronomy

Sep. 24, 2016 Rise Set
Actual Time
Civil Twilight
Nautical Twilight
Astronomical Twilight
Moon
Length of Visible Light
Length of Day
Tomorrow will be .
, % of the Moon is Illuminated

Today's Extremes

Country Highs Country Lows

Community

WunderPhotos

Upload Photos

1,941,434 photos uploaded!

WunderBlog® & News

Nearby

Air Quality

  Air Quality AQ Index Pollutant
Not available.

Snow Depth

Station Depth Elevation

Earthquake Activity

City Distance Mag. Time & Date
Minimum magnitude displayed is 2.5.

Coastal Water Temperatures

Place Temperature

Stations

Nearby Weather Stations

Station Location Temp. Windchill Dew Point Humidity Wind Precip. Elev Updated Type